Time;durP1;ratioP1;P1;durP2;ratioP2;P2;SDS_P1;SDS_P2;PMS_P1;PMS_P2;Temp;Humidity;BMP_temperature;BMP_pressure;BME280_temperature;BME280_humidity;BME280_pressure;Samples;Min_cycle;Max_cycle;Signal;HPM_P1;HPM_P2
2022/03/17 00:08:39;;;;;;;108.98;41.40;;;;;;;3.26;70.33;102050.09;713051;1176;115340;-70
2022/03/17 00:23:41;;;;;;;119.48;45.80;;;;;;;3.27;70.83;102058.70;712833;1175;115272;-71
2022/03/17 00:38:43;;;;;;;137.90;49.57;;;;;;;3.17;71.02;102058.14;712923;1176;115340;-71
2022/03/17 00:53:46;;;;;;;84.40;30.23;;;;;;;3.48;71.31;102068.47;712896;1174;116059;-72
2022/03/17 01:08:48;;;;;;;49.40;19.95;;;;;;;4.25;71.94;102069.53;712834;1175;115707;-72
2022/03/17 01:23:52;;;;;;;39.25;18.45;;;;;;;4.56;70.98;102063.32;713152;1175;115768;-71
2022/03/17 01:38:54;;;;;;;34.93;15.90;;;;;;;4.57;70.78;102068.47;713095;1177;115830;-71
2022/03/17 01:53:56;;;;;;;28.00;12.97;;;;;;;4.61;69.65;102066.61;712930;1177;115875;-71
2022/03/17 02:08:59;;;;;;;32.13;14.53;;;;;;;4.48;71.05;102068.78;712920;1177;114965;-70
2022/03/17 02:39:23;;;;;;;25.13;13.73;;;;;;;4.36;70.64;102106.42;713070;1177;115607;-71
2022/03/17 02:54:25;;;;;;;23.78;12.35;;;;;;;4.24;70.84;102114.63;713060;1175;114344;-71
2022/03/17 03:09:29;;;;;;;27.08;12.83;;;;;;;4.16;71.74;102128.70;713270;1174;115552;-71
2022/03/17 03:24:31;;;;;;;25.50;13.20;;;;;;;4.13;72.72;102127.94;713044;1177;115930;-70
2022/03/17 03:39:33;;;;;;;23.35;13.08;;;;;;;4.02;72.80;102138.66;713085;1175;115046;-71
2022/03/17 03:54:36;;;;;;;23.75;13.15;;;;;;;3.81;73.90;102146.23;713160;1175;114560;-73
2022/03/17 04:09:41;;;;;;;27.80;13.65;;;;;;;3.86;73.19;102172.04;713003;1177;114827;-71
2022/03/17 04:24:43;;;;;;;23.65;13.10;;;;;;;3.82;73.31;102179.06;713671;1176;115542;-70
2022/03/17 04:39:45;;;;;;;23.63;11.60;;;;;;;3.80;73.50;102185.20;713486;1175;115803;-71
2022/03/17 04:54:48;;;;;;;27.20;12.15;;;;;;;3.73;72.72;102207.05;713584;1177;115530;-70
2022/03/17 05:09:50;;;;;;;21.77;12.47;;;;;;;3.68;72.52;102214.95;713667;1177;115889;-72
2022/03/17 05:24:52;;;;;;;27.50;14.70;;;;;;;3.62;72.69;102204.77;713773;1175;115654;-71
2022/03/17 05:39:54;;;;;;;290.63;108.55;;;;;;;3.63;72.98;102225.48;713594;1175;115762;-69
2022/03/17 05:54:57;;;;;;;55.43;27.43;;;;;;;3.73;73.52;102246.83;714022;1177;116255;-71
2022/03/17 06:09:58;;;;;;;34.60;18.93;;;;;;;3.95;73.09;102257.47;713223;1177;115694;-72
2022/03/17 06:25:01;;;;;;;62.85;28.00;;;;;;;4.38;73.15;102249.30;713289;1175;115508;-72
2022/03/17 06:40:07;;;;;;;54.60;30.17;;;;;;;5.02;73.29;102248.98;713384;1176;115506;-79
2022/03/17 06:55:11;;;;;;;31.53;18.63;;;;;;;6.03;72.68;102248.08;716884;1175;115589;-70
2022/03/17 07:10:15;;;;;;;40.97;22.20;;;;;;;7.01;70.85;102269.45;713305;1175;116547;-78
2022/03/17 07:25:18;;;;;;;40.23;19.98;;;;;;;8.13;69.16;102284.60;714564;1176;114702;-78
2022/03/17 07:40:21;;;;;;;38.83;20.43;;;;;;;9.10;66.99;102305.31;714159;1177;114343;-75
2022/03/17 07:55:24;;;;;;;62.38;25.65;;;;;;;9.99;65.30;102309.55;714606;1177;115564;-75
2022/03/17 08:10:27;;;;;;;92.53;33.80;;;;;;;10.55;62.37;102320.52;713779;1176;115579;-77
2022/03/17 08:25:29;;;;;;;73.08;29.40;;;;;;;11.11;60.31;102325.25;714390;1175;114399;-77
2022/03/17 08:40:32;;;;;;;70.37;30.60;;;;;;;11.42;58.57;102323.47;713719;1175;115193;-76
2022/03/17 08:55:36;;;;;;;101.15;41.20;;;;;;;11.74;57.21;102318.88;713855;1176;114934;-77
2022/03/17 09:10:40;;;;;;;41.20;20.97;;;;;;;12.53;55.44;102321.10;713856;1177;115450;-80
2022/03/17 09:25:43;;;;;;;34.40;20.83;;;;;;;12.82;54.66;102332.38;714951;1177;115458;-78
2022/03/17 09:40:46;;;;;;;34.03;17.93;;;;;;;13.36;52.96;102341.16;713560;1175;115515;-81
2022/03/17 09:55:50;;;;;;;28.73;16.93;;;;;;;14.21;52.76;102340.62;713618;1177;115863;-80
2022/03/17 10:10:52;;;;;;;31.58;18.40;;;;;;;14.75;50.92;102334.96;713644;1176;115975;-78
2022/03/17 10:25:58;;;;;;;35.05;20.88;;;;;;;15.20;49.70;102326.36;714839;1175;114753;-80
2022/03/17 10:41:03;;;;;;;52.13;28.75;;;;;;;15.28;48.79;102339.01;714850;1177;115470;-76
2022/03/17 10:56:15;;;;;;;32.35;18.40;;;;;;;16.51;48.42;102319.78;713908;1177;115675;-81
2022/03/17 11:11:18;;;;;;;32.65;18.85;;;;;;;17.06;47.67;102317.08;714952;1177;114639;-82
2022/03/17 11:26:23;;;;;;;31.48;18.10;;;;;;;16.71;47.27;102300.45;715196;1177;114678;-82
2022/03/17 11:41:40;;;;;;;78.40;28.33;;;;;;;17.40;45.75;102296.48;717001;1176;116005;-75
2022/03/17 11:56:43;;;;;;;354.73;143.53;;;;;;;17.32;45.64;102296.31;714408;1177;115757;-75
2022/03/17 12:11:47;;;;;;;53.65;34.38;;;;;;;17.53;44.62;102288.32;718724;1177;116619;-82
2022/03/17 12:27:04;;;;;;;91.00;33.00;;;;;;;17.99;44.64;102269.37;721869;1176;116386;-75
2022/03/17 12:42:17;;;;;;;58.85;27.85;;;;;;;17.90;43.28;102269.18;714064;1177;115730;-81
2022/03/17 12:57:22;;;;;;;88.97;46.73;;;;;;;18.17;42.90;102274.87;720257;1175;114707;-81
2022/03/17 13:27:56;;;;;;;54.33;27.30;;;;;;;18.34;41.93;102262.73;715307;1177;115926;-80
2022/03/17 13:43:09;;;;;;;45.13;24.67;;;;;;;18.94;41.50;102257.30;714108;1177;115936;-80
2022/03/17 13:58:17;;;;;;;37.05;19.45;;;;;;;24.33;37.26;102250.42;714300;1177;114612;-80
2022/03/17 14:13:20;;;;;;;34.50;20.60;;;;;;;24.96;34.79;102250.24;714493;1176;115438;-81
2022/03/17 14:28:23;;;;;;;53.55;26.58;;;;;;;24.84;35.33;102258.73;713967;1177;115520;-76
2022/03/17 14:43:27;;;;;;;49.60;27.83;;;;;;;19.72;36.95;102254.36;713239;1175;114732;-78
2022/03/17 14:58:29;;;;;;;29.00;18.05;;;;;;;16.37;38.91;102258.19;713409;1177;115982;-74
2022/03/17 15:13:34;;;;;;;80.20;34.38;;;;;;;15.02;40.56;102264.31;713379;1177;115985;-82
2022/03/17 15:43:58;;;;;;;43.83;23.75;;;;;;;13.05;43.99;102286.09;713499;1177;115534;-74
2022/03/17 15:59:04;;;;;;;505.43;229.80;;;;;;;12.49;45.51;102294.13;713464;1175;117704;-75
2022/03/17 16:29:30;;;;;;;332.30;135.48;;;;;;;11.19;47.95;102309.05;713089;1175;115813;-74
2022/03/17 16:44:33;;;;;;;119.13;44.80;;;;;;;10.72;48.97;102323.98;712998;1175;116465;-74
2022/03/17 16:59:35;;;;;;;91.43;36.88;;;;;;;10.22;50.04;102341.55;713237;1177;116258;-74
2022/03/17 17:14:41;;;;;;;79.28;38.83;;;;;;;9.94;50.24;102343.02;713193;1177;116020;-73
2022/03/17 17:45:10;;;;;;;166.90;66.10;;;;;;;9.40;51.87;102395.56;713160;1176;115114;-78
2022/03/17 18:00:13;;;;;;;105.70;41.30;;;;;;;9.11;53.35;102388.19;712874;1177;115868;-74
2022/03/17 18:15:16;;;;;;;44.60;20.33;;;;;;;8.93;53.09;102408.23;713338;1175;116111;-75
2022/03/17 18:30:20;;;;;;;56.58;27.28;;;;;;;8.79;53.67;102429.84;713476;1177;115627;-75
2022/03/17 18:45:22;;;;;;;35.20;18.88;;;;;;;8.64;53.84;102438.39;713661;1176;115471;-74
2022/03/17 19:00:26;;;;;;;25.90;14.15;;;;;;;8.54;53.95;102455.41;713362;1175;115494;-74
2022/03/17 19:15:29;;;;;;;25.97;12.73;;;;;;;8.33;54.37;102471.13;713384;1175;114907;-75
2022/03/17 19:30:43;;;;;;;79.83;28.28;;;;;;;8.03;54.16;102478.53;713469;1176;115567;-75
2022/03/17 19:45:46;;;;;;;37.13;19.40;;;;;;;7.71;54.27;102484.18;712962;1176;114744;-74
2022/03/17 20:00:48;;;;;;;35.25;16.98;;;;;;;7.61;54.35;102503.75;713141;1177;114305;-74
2022/03/17 20:16:05;;;;;;;33.85;15.90;;;;;;;7.48;53.38;102511.22;712973;1177;115083;-74
2022/03/17 20:31:07;;;;;;;42.55;17.63;;;;;;;7.29;53.08;102543.27;713450;1177;115077;-74
2022/03/17 20:46:10;;;;;;;34.48;13.38;;;;;;;7.32;53.08;102565.80;713436;1176;114850;-73
2022/03/17 21:01:13;;;;;;;39.83;14.90;;;;;;;7.06;53.00;102572.87;714468;1175;114361;-74
2022/03/17 21:16:15;;;;;;;60.13;20.20;;;;;;;6.80;52.95;102579.86;714038;1175;114520;-74
2022/03/17 21:31:19;;;;;;;84.00;25.70;;;;;;;6.43;53.37;102595.95;714022;1176;114408;-75
2022/03/17 21:46:22;;;;;;;90.67;29.70;;;;;;;6.39;52.89;102599.54;713876;1177;115788;-74
2022/03/17 22:01:24;;;;;;;31.97;13.13;;;;;;;6.35;52.47;102609.24;714503;1175;115701;-74
2022/03/17 22:16:27;;;;;;;79.70;21.60;;;;;;;6.33;52.83;102637.98;714229;1177;115141;-74
2022/03/17 22:31:29;;;;;;;70.70;21.33;;;;;;;6.11;52.81;102636.94;714477;1176;116110;-74
2022/03/17 22:46:32;;;;;;;90.50;24.70;;;;;;;5.93;52.69;102639.20;713695;1175;115620;-73
2022/03/17 23:01:35;;;;;;;81.95;25.05;;;;;;;5.46;53.47;102618.91;713650;1174;115183;-73
2022/03/17 23:16:38;;;;;;;60.58;19.90;;;;;;;5.33;52.83;102651.38;714814;1174;115552;-73
2022/03/17 23:31:41;;;;;;;91.67;26.20;;;;;;;5.28;53.71;102661.93;713971;1174;115959;-73
2022/03/17 23:46:44;;;;;;;36.90;13.30;;;;;;;5.09;53.65;102678.94;714324;1175;115973;-73
